WetterOnline ( https://www.wetteronline.de )

Wetter aktuell Siegen

Aktuelles Wetter: Bad Marienberg (555m)

6-stündlich | Neueste Meldungen
Ortszeit Temperatur Wetter
So, 03.07. 14:00 23.2° C leicht bewölkt
So, 03.07. 8:00 17.9° C leicht bewölkt
So, 03.07. 2:00 16.8° C wolkenlos
Sa, 02.07. 20:00 21.4° C wolkenlos
Sa, 02.07. 14:00 20.4° C fast wolkenlos
Sa, 02.07. 8:00 14.9° C wolkenlos
Sa, 02.07. 2:00 12.9° C wolkenlos
Fr, 01.07. 20:00 15.9° C leicht bewölkt
Ortszeit Temperatur Wetter
So, 03.07. 16:30 23.3° C fast wolkenlos
So, 03.07. 16:20 23.3° C fast wolkenlos
So, 03.07. 16:10 24.0° C leicht bewölkt
So, 03.07. 16:00 24.2° C wolkig
So, 03.07. 15:50 24.2° C wolkig
So, 03.07. 15:40 22.7° C bewölkt
So, 03.07. 15:30 22.5° C wolkig
So, 03.07. 15:00 23.8° C leicht bewölkt
So, 03.07. 14:30 23.6° C wolkig
So, 03.07. 14:00 23.2° C leicht bewölkt
So, 03.07. 13:30 22.6° C fast wolkenlos
Ortszeit Relative Feuchte Sichtweite
So, 03.07. 14:00 44% >70 km
So, 03.07. 8:00 65% >70 km
So, 03.07. 2:00 58% >70 km
Sa, 02.07. 20:00 46% 65 km
Sa, 02.07. 14:00 49% 60 km
Sa, 02.07. 8:00 70% >70 km
Sa, 02.07. 2:00 70% >70 km
Fr, 01.07. 20:00 62% 60 km
Ortszeit Relative Feuchte Sichtweite
So, 03.07. 16:30 42% 60 km
So, 03.07. 16:20 42% -
So, 03.07. 16:10 41% -
So, 03.07. 16:00 45% 50 km
So, 03.07. 15:50 45% -
So, 03.07. 15:40 45% -
So, 03.07. 15:30 45% 45 km
So, 03.07. 15:00 43% >70 km
So, 03.07. 14:30 43% 55 km
So, 03.07. 14:00 44% >70 km
So, 03.07. 13:30 42% 60 km
Ortszeit Niederschlagsmenge Niederschlagsart
So, 03.07. 14:00 0.0 l/m2 in 6 Std. -
So, 03.07. 8:00 0.0 l/m2 in 12 Std. -
So, 03.07. 2:00 0.0 l/m2 in 6 Std. -
Sa, 02.07. 20:00 0.0 l/m2 in 12 Std. -
Sa, 02.07. 14:00 0.0 l/m2 in 6 Std. -
Sa, 02.07. 8:00 0.1 l/m2 in 12 Std. -
Sa, 02.07. 2:00 0.1 l/m2 in 6 Std. Regen
Fr, 01.07. 20:00 0.1 l/m2 in 12 Std. Regen
Ortszeit Niederschlagsmenge Niederschlagsart
So, 03.07. 16:30 0.0 l/m2 in 1 Std. -
So, 03.07. 16:20 keine Meldung -
So, 03.07. 16:10 keine Meldung -
So, 03.07. 16:00 0.0 l/m2 in 1 Std. -
So, 03.07. 15:50 keine Meldung -
So, 03.07. 15:40 keine Meldung -
So, 03.07. 15:30 0.0 l/m2 in 1 Std. -
So, 03.07. 15:00 0.0 l/m2 in 1 Std. -
So, 03.07. 14:30 0.0 l/m2 in 1 Std. -
So, 03.07. 14:00 0.0 l/m2 in 1 Std. -
So, 03.07. 13:30 0.0 l/m2 in 1 Std. -
Ortszeit Stärke Spitze Richtung
km/h Bft. km/h Grad Sektor
So, 03.07. 14:00 7 2 28 170° S
So, 03.07. 8:00 4 1 11 130° SO
So, 03.07. 2:00 7 2 22 130° SO
Sa, 02.07. 20:00 14 3 36 150° SO
Sa, 02.07. 14:00 15 3 35 150° SO
Sa, 02.07. 8:00 7 2 7 130° SO
Sa, 02.07. 2:00 4 1 11 210° SW
Fr, 01.07. 20:00 4 1 25 310° NW
Ortszeit Stärke Spitze Richtung
km/h Bft. km/h Grad Sektor
So, 03.07. 16:30 13 3 28 210° SW
So, 03.07. 16:20 13 3 - 210° SW
So, 03.07. 16:10 14 3 - 210° SW
So, 03.07. 16:00 7 2 36 210° SW
So, 03.07. 15:50 7 2 - 210° SW
So, 03.07. 15:40 7 2 - 200° S
So, 03.07. 15:30 13 3 33 230° SW
So, 03.07. 15:00 13 3 30 200° S
So, 03.07. 14:30 17 3 30 190° S
So, 03.07. 14:00 7 2 28 170° S
So, 03.07. 13:30 7 2 29 290° W
Ortszeit Untergrenze Bedeckung Gattung
total tief tief mittel hoch
So, 03.07. 14:00 1800 m 4/8 4/8 - - -
So, 03.07. 8:00 1800 m 4/8 4/8 - - -
So, 03.07. 2:00 - 0/8 0/8 - - -
Sa, 02.07. 20:00 - 0/8 0/8 - - -
Sa, 02.07. 14:00 1350 m 1/8 1/8 - - -
Sa, 02.07. 8:00 - 0/8 0/8 - - -
Sa, 02.07. 2:00 - 0/8 0/8 - - -
Fr, 01.07. 20:00 2400 m 4/8 4/8 - - -
Ortszeit Bedeckungsgrad in Achtel und Wolkenuntergrenze
So, 03.07. 16:30 1(2400m)
So, 03.07. 16:20 1(2400m)
So, 03.07. 16:10 2
So, 03.07. 16:00 4(1800m) 6(2100m) 6(2400m)
So, 03.07. 15:50 4(1800m) 6(2100m) 6(2400m)
So, 03.07. 15:40 7
So, 03.07. 15:30 5(1800m) 6(2100m)
So, 03.07. 15:00 2(1800m)
So, 03.07. 14:30 5(1800m)
So, 03.07. 14:00 4(1800m)
So, 03.07. 13:30 1(1500m)
Ortszeit Luftdruck NN (hPa) Tendenz (hPa in 3 Std.)
So, 03.07. 14:00 1017 - 0,3
So, 03.07. 8:00 1018 + 0,4
So, 03.07. 2:00 1018 - 0,5
Sa, 02.07. 20:00 1018 - 1,3
Sa, 02.07. 14:00 1021 - 1,3
Sa, 02.07. 8:00 1023 + 0,6
Sa, 02.07. 2:00 1023 + 0,9
Fr, 01.07. 20:00 1020 + 0,6
Ortszeit Luftdruck NN (hPa) Tendenz (hPa in 3 Std.)
So, 03.07. 16:30 1016 - 0,9
So, 03.07. 16:20 1016 keine Meldung
So, 03.07. 16:10 1016 keine Meldung
So, 03.07. 16:00 1016 - 0,8
So, 03.07. 15:50 1016 keine Meldung
So, 03.07. 15:40 1016 keine Meldung
So, 03.07. 15:30 1017 - 0,7
So, 03.07. 15:00 1016 - 0,7
So, 03.07. 14:30 1016 - 0,4
So, 03.07. 14:00 1017 - 0,3
So, 03.07. 13:30 1017 + 0,1
Ortszeit Schneehöhe (cm)
So, 03.07. 14:00 0
So, 03.07. 8:00 0
So, 03.07. 2:00 0
Sa, 02.07. 20:00 0
Sa, 02.07. 14:00 0
Sa, 02.07. 8:00 0
Sa, 02.07. 2:00 0
Fr, 01.07. 20:00 0
Ortszeit Schneehöhe (cm)
So, 03.07. 16:30 0
So, 03.07. 16:20 0
So, 03.07. 16:10 0
So, 03.07. 16:00 0
So, 03.07. 15:50 0
So, 03.07. 15:40 0
So, 03.07. 15:30 0
So, 03.07. 15:00 0
So, 03.07. 14:30 0
So, 03.07. 14:00 0
So, 03.07. 13:30 0
Link zu dieser Seite / Seite empfehlen

Das Wetter in ...